createdAt,value
2017-05-28T00:01:54.410Z,18.50
2017-05-28T00:04:29.731Z,18.40
2017-05-28T00:07:04.936Z,18.40
2017-05-28T00:09:40.922Z,18.30
2017-05-28T00:12:16.439Z,18.40
2017-05-28T00:14:51.654Z,18.40
2017-05-28T00:17:26.935Z,18.30
2017-05-28T00:20:02.339Z,18.20
2017-05-28T00:22:37.578Z,18.20
2017-05-28T00:25:12.867Z,18.20
2017-05-28T00:27:48.106Z,18.10
2017-05-28T00:30:23.346Z,18.10
2017-05-28T00:32:58.647Z,18.10
2017-05-28T00:35:33.934Z,18.10
2017-05-28T00:38:09.451Z,17.90
2017-05-28T00:40:44.605Z,18.00
2017-05-28T00:43:19.893Z,17.90
2017-05-28T00:45:55.249Z,17.80
2017-05-28T00:48:30.574Z,17.90
2017-05-28T00:51:05.962Z,17.90
2017-05-28T00:53:41.278Z,18.00
2017-05-28T00:56:16.441Z,18.10
2017-05-28T00:58:51.631Z,18.00
2017-05-28T01:01:26.837Z,18.00
2017-05-28T01:04:02.342Z,18.00
2017-05-28T01:06:37.626Z,18.10
2017-05-28T01:09:13.050Z,18.20
2017-05-28T01:11:48.370Z,18.20
2017-05-28T01:14:23.919Z,18.10
2017-05-28T01:16:59.225Z,18.20
2017-05-28T01:19:34.503Z,18.10
2017-05-28T01:22:09.913Z,18.20
2017-05-28T01:24:45.149Z,18.20
2017-05-28T01:27:20.347Z,18.10
2017-05-28T01:29:55.754Z,18.10
2017-05-28T01:32:30.942Z,18.10
2017-05-28T01:35:06.130Z,18.10
2017-05-28T01:37:43.000Z,18.10
2017-05-28T01:40:18.548Z,18.00
2017-05-28T01:42:53.903Z,18.00
2017-05-28T01:45:29.153Z,18.00
2017-05-28T01:48:04.578Z,17.90
2017-05-28T01:50:40.000Z,17.90
2017-05-28T01:53:15.424Z,17.90
2017-05-28T01:55:50.863Z,17.80
2017-05-28T01:58:25.985Z,17.90
2017-05-28T02:01:01.152Z,17.80
2017-05-28T02:03:36.515Z,17.80
2017-05-28T02:06:11.827Z,17.70
2017-05-28T02:08:47.182Z,17.80
2017-05-28T02:11:22.518Z,17.80
2017-05-28T02:13:57.833Z,17.70
2017-05-28T02:16:33.099Z,17.80
2017-05-28T02:19:08.411Z,17.80
2017-05-28T02:21:43.657Z,17.70
2017-05-28T02:24:19.032Z,17.80
2017-05-28T02:26:54.260Z,17.70
2017-05-28T02:29:29.508Z,17.70
2017-05-28T02:32:04.701Z,17.70
2017-05-28T02:34:40.009Z,17.70
2017-05-28T02:37:15.301Z,17.60
2017-05-28T02:39:50.550Z,17.70
2017-05-28T02:42:25.882Z,17.70
2017-05-28T02:45:01.167Z,17.70
2017-05-28T02:47:36.474Z,17.60
2017-05-28T02:50:11.634Z,17.60
2017-05-28T02:52:47.087Z,17.60
2017-05-28T02:55:22.499Z,17.50
2017-05-28T02:57:57.827Z,17.50
2017-05-28T03:00:33.190Z,17.40
2017-05-28T03:03:08.641Z,17.40
2017-05-28T03:05:43.891Z,17.40
2017-05-28T03:08:19.195Z,17.40
2017-05-28T03:10:54.592Z,17.40
2017-05-28T03:13:29.802Z,17.40
2017-05-28T03:16:05.046Z,17.40
2017-05-28T03:18:40.430Z,17.30
2017-05-28T03:21:15.788Z,17.30
2017-05-28T03:23:51.278Z,17.40
2017-05-28T03:26:26.451Z,17.40
2017-05-28T03:29:01.938Z,17.40
2017-05-28T03:31:37.358Z,17.40
2017-05-28T03:34:12.925Z,17.40
2017-05-28T03:36:48.327Z,17.50
2017-05-28T03:39:23.609Z,17.60
2017-05-28T03:41:59.112Z,17.50
2017-05-28T03:44:34.554Z,17.60
2017-05-28T03:47:10.008Z,17.60
2017-05-28T03:49:45.390Z,17.60
2017-05-28T03:52:20.826Z,17.50
2017-05-28T03:54:56.069Z,17.60
2017-05-28T03:57:31.314Z,17.60
2017-05-28T04:00:08.676Z,17.60
2017-05-28T04:02:46.280Z,17.60
2017-05-28T04:05:22.046Z,17.70
2017-05-28T04:07:58.034Z,17.70
2017-05-28T04:10:33.513Z,17.80
2017-05-28T04:13:08.794Z,17.90
2017-05-28T04:15:44.094Z,17.90
2017-05-28T04:18:19.450Z,18.00
2017-05-28T04:20:54.754Z,18.10
2017-05-28T04:23:30.485Z,18.10
2017-05-28T04:26:05.979Z,18.10
2017-05-28T04:28:41.330Z,18.20
2017-05-28T04:31:16.576Z,18.20
2017-05-28T04:33:51.924Z,18.20
2017-05-28T04:36:27.404Z,18.20
2017-05-28T04:39:02.715Z,18.20
2017-05-28T04:41:37.993Z,18.30
2017-05-28T04:44:13.441Z,18.30
2017-05-28T04:46:48.722Z,18.30
2017-05-28T04:49:24.141Z,18.30
2017-05-28T04:51:59.408Z,18.30
2017-05-28T04:54:34.833Z,18.30
2017-05-28T04:57:10.006Z,18.30
2017-05-28T04:59:45.249Z,18.30
2017-05-28T05:02:20.557Z,18.40
2017-05-28T05:04:55.677Z,18.40
2017-05-28T05:07:31.082Z,18.50
2017-05-28T05:10:06.320Z,18.40
2017-05-28T05:12:41.688Z,18.40
2017-05-28T05:15:16.988Z,18.40
2017-05-28T05:17:52.419Z,18.40
2017-05-28T05:20:27.762Z,18.50
2017-05-28T05:23:03.137Z,18.60
2017-05-28T05:25:38.507Z,18.70
2017-05-28T05:28:13.897Z,18.70
2017-05-28T05:30:49.057Z,18.80
2017-05-28T05:33:24.395Z,18.90
2017-05-28T05:36:00.399Z,18.90
2017-05-28T05:38:35.767Z,19.00
2017-05-28T05:41:11.232Z,19.10
2017-05-28T05:43:46.495Z,19.20
2017-05-28T05:46:21.909Z,19.40
2017-05-28T05:48:57.337Z,20.90
2017-05-28T05:51:32.480Z,22.70
2017-05-28T05:54:07.827Z,23.90
2017-05-28T05:56:43.211Z,23.50
2017-05-28T05:59:18.581Z,23.30
2017-05-28T06:01:54.039Z,23.70
2017-05-28T06:04:29.305Z,23.20
2017-05-28T06:07:04.601Z,23.80
2017-05-28T06:09:40.701Z,24.30
2017-05-28T06:12:15.836Z,23.80
2017-05-28T06:14:51.340Z,24.40
2017-05-28T06:17:26.600Z,24.50
2017-05-28T06:20:02.106Z,24.40
2017-05-28T06:22:37.386Z,24.20
2017-05-28T06:25:12.805Z,24.40
2017-05-28T06:27:48.134Z,24.00
2017-05-28T06:30:23.436Z,21.90
2017-05-28T06:32:58.644Z,21.10
2017-05-28T06:35:34.178Z,21.20
2017-05-28T06:38:09.985Z,22.20
2017-05-28T06:40:45.404Z,22.70
2017-05-28T06:43:22.170Z,22.60
2017-05-28T06:45:57.742Z,23.20
2017-05-28T06:48:32.980Z,23.50
2017-05-28T06:51:08.403Z,24.30
2017-05-28T06:53:43.740Z,22.50
2017-05-28T06:56:19.062Z,21.80
2017-05-28T06:58:54.425Z,22.70
2017-05-28T07:01:29.698Z,22.00
2017-05-28T07:04:04.878Z,22.00
2017-05-28T07:06:40.223Z,22.00
2017-05-28T07:09:15.506Z,21.80
2017-05-28T07:11:50.802Z,21.30
2017-05-28T07:14:25.950Z,21.20
2017-05-28T07:17:01.199Z,21.00
2017-05-28T07:19:36.567Z,21.10
2017-05-28T07:22:12.058Z,21.10
2017-05-28T07:24:47.329Z,21.20
2017-05-28T07:27:22.834Z,21.20
2017-05-28T07:29:58.099Z,21.30
2017-05-28T07:32:33.439Z,21.50
2017-05-28T07:35:08.740Z,21.50
2017-05-28T07:37:43.980Z,21.60
2017-05-28T07:40:19.245Z,21.40
2017-05-28T07:42:54.469Z,21.20
2017-05-28T07:45:29.781Z,21.30
2017-05-28T07:48:05.129Z,21.40
2017-05-28T07:50:40.236Z,21.40
2017-05-28T07:53:15.820Z,21.60
2017-05-28T07:55:51.163Z,21.70
2017-05-28T07:58:26.502Z,21.60
2017-05-28T08:01:01.852Z,21.60
2017-05-28T08:03:37.315Z,22.00
2017-05-28T08:06:12.571Z,21.70
2017-05-28T08:08:48.082Z,21.80
2017-05-28T08:11:23.475Z,21.90
2017-05-28T08:13:58.886Z,21.70
2017-05-28T08:16:34.076Z,22.00
2017-05-28T08:19:09.577Z,22.00
2017-05-28T08:21:44.898Z,21.50
2017-05-28T08:24:20.535Z,21.40
2017-05-28T08:26:55.721Z,21.30
2017-05-28T08:29:31.086Z,21.20
2017-05-28T08:32:06.538Z,21.20
2017-05-28T08:34:42.486Z,21.20
2017-05-28T08:37:17.675Z,21.20
2017-05-28T08:39:52.995Z,21.00
2017-05-28T08:42:28.150Z,21.10
2017-05-28T08:45:03.469Z,21.00
2017-05-28T08:47:38.854Z,20.90
2017-05-28T08:50:14.443Z,20.70
2017-05-28T08:52:49.632Z,20.70
2017-05-28T08:55:25.091Z,20.70
2017-05-28T08:58:00.475Z,20.60
2017-05-28T09:00:35.765Z,20.60
2017-05-28T09:03:11.650Z,20.60
2017-05-28T09:05:47.239Z,20.50
2017-05-28T09:08:22.497Z,20.50
2017-05-28T09:10:58.123Z,20.50
2017-05-28T09:13:33.535Z,20.30
2017-05-28T09:16:09.140Z,20.20
2017-05-28T09:18:44.487Z,20.20
2017-05-28T09:21:19.983Z,20.10
2017-05-28T09:23:55.371Z,20.10
2017-05-28T09:26:30.815Z,20.10
2017-05-28T09:29:06.132Z,20.20
2017-05-28T09:31:42.308Z,20.10
2017-05-28T09:34:17.501Z,20.20
2017-05-28T09:36:53.009Z,20.20
2017-05-28T09:39:28.199Z,20.20
2017-05-28T09:42:03.814Z,20.30
2017-05-28T09:44:39.179Z,20.40
2017-05-28T09:47:14.739Z,20.40
2017-05-28T09:49:50.200Z,20.40
2017-05-28T09:52:25.818Z,20.60
2017-05-28T09:55:01.069Z,20.80
2017-05-28T09:57:36.244Z,20.90
2017-05-28T10:00:11.556Z,20.80
2017-05-28T10:02:46.795Z,20.90
2017-05-28T10:05:22.016Z,21.30
2017-05-28T10:07:57.252Z,21.40
2017-05-28T10:10:32.542Z,21.40
2017-05-28T10:13:08.046Z,21.60
2017-05-28T10:15:43.322Z,22.00
2017-05-28T10:18:18.718Z,22.50
2017-05-28T10:20:54.145Z,23.00
2017-05-28T10:23:29.814Z,23.70
2017-05-28T10:26:05.077Z,23.30
2017-05-28T10:28:40.405Z,23.90
2017-05-28T10:31:15.862Z,24.50
2017-05-28T10:33:51.226Z,24.50
2017-05-28T10:36:26.554Z,24.60
2017-05-28T10:39:01.973Z,24.60
2017-05-28T10:41:37.366Z,25.60
2017-05-28T10:44:12.764Z,25.40
2017-05-28T10:46:48.069Z,25.60
2017-05-28T10:49:23.394Z,25.60
2017-05-28T10:51:58.714Z,24.90
2017-05-28T10:54:34.089Z,25.20
2017-05-28T10:57:09.363Z,25.20
2017-05-28T10:59:44.913Z,25.30
2017-05-28T11:02:20.215Z,25.10
2017-05-28T11:04:55.524Z,25.30
2017-05-28T11:07:31.627Z,25.40
2017-05-28T11:10:06.897Z,25.90
2017-05-28T11:12:42.150Z,25.60
2017-05-28T11:15:17.620Z,26.20
2017-05-28T11:17:52.925Z,25.80
2017-05-28T11:20:28.307Z,25.80
2017-05-28T11:23:04.953Z,25.90
2017-05-28T11:25:40.410Z,26.00
2017-05-28T11:28:15.770Z,26.40
2017-05-28T11:30:51.067Z,26.10
2017-05-28T11:33:26.360Z,26.30
2017-05-28T11:36:01.878Z,26.20
2017-05-28T11:38:38.796Z,26.50
2017-05-28T11:41:15.089Z,26.60
2017-05-28T11:43:51.081Z,26.80
2017-05-28T11:46:27.112Z,26.90
2017-05-28T11:49:03.618Z,26.80
2017-05-28T11:51:42.505Z,26.80
2017-05-28T11:54:18.080Z,26.60
2017-05-28T11:56:57.030Z,26.70
2017-05-28T11:59:33.008Z,26.10
2017-05-28T12:02:09.605Z,26.60
2017-05-28T12:04:44.782Z,26.10
2017-05-28T12:07:20.239Z,26.10
2017-05-28T12:09:55.631Z,26.00
2017-05-28T12:12:31.323Z,26.30
2017-05-28T12:15:06.585Z,26.20
2017-05-28T12:17:42.070Z,26.60
2017-05-28T12:20:17.532Z,26.70
2017-05-28T12:22:53.014Z,26.20
2017-05-28T12:25:28.433Z,26.30
2017-05-28T12:28:03.870Z,26.20
2017-05-28T12:30:39.274Z,26.30
2017-05-28T12:33:14.648Z,25.50
2017-05-28T12:35:50.381Z,26.00
2017-05-28T12:38:25.682Z,26.60
2017-05-28T12:41:01.054Z,26.50
2017-05-28T12:43:36.513Z,26.80
2017-05-28T12:46:11.682Z,26.30
2017-05-28T12:48:47.126Z,25.80
2017-05-28T12:51:22.485Z,25.40
2017-05-28T12:56:43.726Z,25.20
2017-05-28T12:59:19.045Z,26.10
2017-05-28T13:01:54.295Z,26.10
2017-05-28T13:04:29.645Z,25.30
2017-05-28T13:07:05.093Z,25.40
2017-05-28T13:09:40.639Z,25.40
2017-05-28T13:12:15.774Z,25.20
2017-05-28T13:14:51.161Z,25.00
2017-05-28T13:17:26.455Z,25.50
2017-05-28T13:20:01.918Z,25.90
2017-05-28T13:22:37.159Z,26.20
2017-05-28T13:25:12.552Z,29.80
2017-05-28T13:27:47.706Z,28.00
2017-05-28T13:30:23.002Z,29.10
2017-05-28T13:32:58.320Z,27.70
2017-05-28T13:35:33.637Z,28.30
2017-05-28T13:38:08.926Z,27.00
2017-05-28T13:40:44.257Z,28.60
2017-05-28T13:43:19.851Z,28.70
2017-05-28T13:45:55.307Z,27.80
2017-05-28T13:48:30.568Z,28.00
2017-05-28T13:51:05.951Z,27.70
2017-05-28T13:53:41.315Z,26.90
2017-05-28T13:56:17.466Z,27.00
2017-05-28T13:58:52.943Z,26.80
2017-05-28T14:01:28.785Z,27.80
2017-05-28T14:04:03.942Z,28.60
2017-05-28T14:06:39.297Z,27.50
2017-05-28T14:09:14.485Z,26.50
2017-05-28T14:11:49.804Z,26.40
2017-05-28T14:14:25.957Z,26.90
2017-05-28T14:17:01.255Z,26.60
2017-05-28T14:19:36.670Z,27.00
2017-05-28T14:22:12.185Z,26.80
2017-05-28T14:24:47.441Z,26.00
2017-05-28T14:27:23.000Z,26.20
2017-05-28T14:29:58.357Z,26.90
2017-05-28T14:32:33.968Z,25.70
2017-05-28T14:35:09.283Z,26.70
2017-05-28T14:37:44.880Z,28.30
2017-05-28T14:40:20.194Z,28.00
2017-05-28T14:42:55.576Z,27.30
2017-05-28T14:45:30.806Z,26.50
2017-05-28T14:48:06.299Z,25.60
2017-05-28T14:50:43.149Z,26.60
2017-05-28T14:53:19.168Z,26.40
2017-05-28T14:55:54.426Z,25.50
2017-05-28T14:58:31.086Z,24.80
2017-05-28T15:01:06.703Z,24.60
2017-05-28T15:03:42.795Z,24.80
2017-05-28T15:06:17.961Z,24.50
2017-05-28T15:11:35.113Z,24.30
2017-05-28T15:14:10.737Z,24.10
2017-05-28T15:16:46.095Z,24.10
2017-05-28T15:19:21.559Z,24.10
2017-05-28T15:21:56.938Z,23.70
2017-05-28T15:24:32.264Z,23.80
2017-05-28T15:27:07.621Z,23.90
2017-05-28T15:29:42.847Z,23.60
2017-05-28T15:32:18.298Z,23.60
2017-05-28T15:34:53.949Z,23.40
2017-05-28T15:37:29.520Z,23.60
2017-05-28T15:40:04.915Z,23.50
2017-05-28T15:42:40.203Z,23.20
2017-05-28T15:45:15.554Z,23.00
2017-05-28T15:47:50.843Z,23.20
2017-05-28T15:50:26.418Z,23.40
2017-05-28T15:53:01.694Z,22.90
2017-05-28T15:55:36.977Z,23.20
2017-05-28T15:58:12.334Z,22.80
2017-05-28T16:00:47.735Z,22.80
2017-05-28T16:03:23.193Z,22.90
2017-05-28T16:05:58.489Z,22.50
2017-05-28T16:08:33.776Z,22.70
2017-05-28T16:11:09.063Z,22.80
2017-05-28T16:13:44.567Z,22.90
2017-05-28T16:16:19.902Z,22.70
2017-05-28T16:18:55.305Z,22.60
2017-05-28T16:21:30.665Z,22.50
2017-05-28T16:24:05.982Z,22.30
2017-05-28T16:26:41.495Z,22.50
2017-05-28T16:29:16.693Z,22.50
2017-05-28T16:31:52.142Z,22.40
2017-05-28T16:34:27.527Z,22.30
2017-05-28T16:37:02.873Z,22.40
2017-05-28T16:39:38.282Z,22.40
2017-05-28T16:42:13.578Z,22.40
2017-05-28T16:44:48.898Z,22.30
2017-05-28T16:47:24.412Z,22.30
2017-05-28T16:49:59.654Z,22.20
2017-05-28T16:52:35.081Z,22.20
2017-05-28T16:55:10.218Z,22.10
2017-05-28T16:57:45.777Z,22.20
2017-05-28T17:00:20.945Z,22.00
2017-05-28T17:02:56.979Z,22.00
2017-05-28T17:05:32.345Z,21.90
2017-05-28T17:08:07.624Z,21.70
2017-05-28T17:10:42.983Z,21.70
2017-05-28T17:13:18.495Z,21.70
2017-05-28T17:15:53.718Z,21.70
2017-05-28T17:18:29.017Z,21.50
2017-05-28T17:21:04.319Z,21.40
2017-05-28T17:23:39.635Z,21.00
2017-05-28T17:28:56.566Z,20.90
2017-05-28T17:31:31.751Z,20.80
2017-05-28T17:34:07.206Z,20.80
2017-05-28T17:36:42.455Z,20.70
2017-05-28T17:39:17.880Z,20.60
2017-05-28T17:41:53.209Z,20.60
2017-05-28T17:44:28.528Z,20.60
2017-05-28T17:47:03.871Z,20.60
2017-05-28T17:49:39.527Z,20.70
2017-05-28T17:52:14.682Z,20.70
2017-05-28T17:54:50.105Z,20.60
2017-05-28T17:57:25.499Z,20.30
2017-05-28T18:00:01.212Z,20.10
2017-05-28T18:02:36.474Z,20.20
2017-05-28T18:05:11.752Z,20.20
2017-05-28T18:07:47.055Z,20.10
2017-05-28T18:10:22.307Z,19.90
2017-05-28T18:12:57.671Z,20.10
2017-05-28T18:15:33.135Z,20.00
2017-05-28T18:18:08.543Z,19.90
2017-05-28T18:20:46.066Z,19.90
2017-05-28T18:23:24.267Z,19.70
2017-05-28T18:26:00.006Z,19.60
2017-05-28T18:28:35.230Z,19.30
2017-05-28T18:31:10.549Z,19.10
2017-05-28T18:33:45.849Z,19.00
2017-05-28T18:36:21.113Z,19.00
2017-05-28T18:38:56.418Z,18.90
2017-05-28T18:41:31.955Z,18.90
2017-05-28T18:44:07.127Z,18.90
2017-05-28T18:46:42.654Z,18.70
2017-05-28T18:49:18.065Z,18.70
2017-05-28T18:51:53.758Z,18.60
2017-05-28T18:54:28.977Z,18.60
2017-05-28T18:57:05.254Z,18.40
2017-05-28T18:59:40.603Z,18.30
2017-05-28T19:02:16.033Z,18.30
2017-05-28T19:04:51.329Z,18.20
2017-05-28T19:07:26.594Z,18.10
2017-05-28T19:10:01.958Z,18.10
2017-05-28T19:12:37.314Z,18.00
2017-05-28T19:15:12.643Z,18.00
2017-05-28T19:17:48.111Z,18.00
2017-05-28T19:20:23.482Z,17.90
2017-05-28T19:22:58.712Z,17.80
2017-05-28T19:25:34.121Z,17.80
2017-05-28T19:28:09.869Z,17.70
2017-05-28T19:30:45.151Z,17.70
2017-05-28T19:33:20.529Z,17.50
2017-05-28T19:35:55.710Z,17.50
2017-05-28T19:38:31.185Z,17.40
2017-05-28T19:41:06.526Z,17.50
2017-05-28T19:43:41.833Z,17.40
2017-05-28T19:46:17.074Z,17.30
2017-05-28T19:48:52.570Z,17.20
2017-05-28T19:51:27.985Z,17.10
2017-05-28T19:54:03.426Z,17.10
2017-05-28T19:56:38.768Z,17.10
2017-05-28T19:59:14.442Z,17.00
2017-05-28T20:01:50.546Z,16.90
2017-05-28T20:04:25.799Z,16.90
2017-05-28T20:07:01.203Z,16.80
2017-05-28T20:09:36.637Z,16.80
2017-05-28T20:12:11.902Z,16.80
2017-05-28T20:14:47.348Z,16.70
2017-05-28T20:17:22.636Z,16.70
2017-05-28T20:19:58.201Z,16.70
2017-05-28T20:22:33.559Z,16.60
2017-05-28T20:25:09.115Z,16.40
2017-05-28T20:27:44.366Z,16.40
2017-05-28T20:30:20.091Z,16.40
2017-05-28T20:32:55.391Z,16.40
2017-05-28T20:35:30.806Z,16.20
2017-05-28T20:38:06.052Z,16.10
2017-05-28T20:40:41.438Z,16.20
2017-05-28T20:43:16.735Z,16.20
2017-05-28T20:45:52.000Z,16.10
2017-05-28T20:48:27.270Z,16.00
2017-05-28T20:51:02.695Z,16.00
2017-05-28T20:53:37.950Z,15.90
2017-05-28T20:56:13.324Z,15.90
2017-05-28T20:58:48.653Z,15.90
2017-05-28T21:01:24.053Z,15.80
2017-05-28T21:03:59.310Z,15.70
2017-05-28T21:06:34.743Z,15.70
2017-05-28T21:09:09.981Z,15.60
2017-05-28T21:11:45.265Z,15.60
2017-05-28T21:14:20.581Z,15.60
2017-05-28T21:16:55.950Z,15.50
2017-05-28T21:19:31.194Z,15.40
2017-05-28T21:22:06.463Z,15.30
2017-05-28T21:24:41.781Z,15.30
2017-05-28T21:27:17.337Z,15.20
2017-05-28T21:29:52.568Z,15.20
2017-05-28T21:32:28.136Z,15.20
2017-05-28T21:35:03.419Z,15.20
2017-05-28T21:37:38.826Z,15.10
2017-05-28T21:40:14.141Z,15.00
2017-05-28T21:42:49.643Z,14.90
2017-05-28T21:45:25.000Z,14.90
2017-05-28T21:48:00.282Z,14.90
2017-05-28T21:50:35.626Z,14.80
2017-05-28T21:53:11.140Z,14.90
2017-05-28T21:55:46.411Z,14.80
2017-05-28T21:58:21.630Z,14.90
2017-05-28T22:00:56.980Z,14.90
2017-05-28T22:03:32.741Z,14.90
2017-05-28T22:06:07.859Z,14.90
2017-05-28T22:08:43.125Z,15.00
2017-05-28T22:11:18.339Z,14.90
2017-05-28T22:13:53.899Z,14.90
2017-05-28T22:16:29.314Z,15.00
2017-05-28T22:19:04.773Z,15.00
2017-05-28T22:21:40.080Z,14.90
2017-05-28T22:24:15.491Z,14.90
2017-05-28T22:26:50.639Z,14.80
2017-05-28T22:29:25.843Z,14.80
2017-05-28T22:32:01.657Z,14.80
2017-05-28T22:34:37.122Z,14.80
2017-05-28T22:37:12.467Z,14.80
2017-05-28T22:39:47.850Z,14.70
2017-05-28T22:42:23.189Z,14.70
2017-05-28T22:44:58.585Z,14.70
2017-05-28T22:47:33.894Z,14.80
2017-05-28T22:50:09.162Z,14.80
2017-05-28T22:52:44.717Z,14.70
2017-05-28T22:55:20.010Z,14.70
2017-05-28T22:57:55.373Z,14.80
2017-05-28T23:00:30.686Z,14.80
2017-05-28T23:03:06.128Z,14.70
2017-05-28T23:05:41.533Z,14.80
2017-05-28T23:08:16.854Z,14.80
2017-05-28T23:10:52.261Z,14.80
2017-05-28T23:13:27.740Z,14.80
2017-05-28T23:16:03.559Z,14.80
2017-05-28T23:18:39.041Z,14.70
2017-05-28T23:21:14.315Z,14.80
2017-05-28T23:23:49.622Z,14.70
2017-05-28T23:26:24.914Z,14.70
2017-05-28T23:29:00.329Z,14.70
2017-05-28T23:31:35.523Z,14.70
2017-05-28T23:34:10.818Z,14.60
2017-05-28T23:36:46.118Z,14.70
2017-05-28T23:39:21.423Z,14.70
2017-05-28T23:41:56.725Z,14.70
2017-05-28T23:44:32.132Z,14.70
2017-05-28T23:47:07.365Z,14.60
2017-05-28T23:49:42.766Z,14.60
2017-05-28T23:52:17.987Z,14.60
2017-05-28T23:54:53.733Z,14.60
2017-05-28T23:57:28.872Z,14.60
